createdAt,value
2019-01-17T00:00:22.489Z,5.17
2019-01-17T00:05:51.370Z,5.18
2019-01-17T00:11:12.106Z,5.23
2019-01-17T00:16:29.339Z,5.23
2019-01-17T00:21:56.018Z,5.22
2019-01-17T00:27:34.188Z,5.23
2019-01-17T00:33:16.331Z,5.23
2019-01-17T00:38:44.021Z,5.18
2019-01-17T00:44:07.007Z,5.19
2019-01-17T00:49:44.130Z,5.13
2019-01-17T00:55:14.075Z,5.12
2019-01-17T01:00:38.126Z,5.11
2019-01-17T01:06:08.303Z,5.13
2019-01-17T01:11:37.198Z,5.18
2019-01-17T01:17:19.580Z,5.22
2019-01-17T01:22:47.627Z,5.19
2019-01-17T01:28:20.801Z,5.21
2019-01-17T01:33:43.366Z,5.28
2019-01-17T01:39:17.638Z,5.22
2019-01-17T01:44:56.670Z,5.19
2019-01-17T01:50:23.634Z,5.28
2019-01-17T01:55:29.024Z,5.29
2019-01-17T02:00:34.194Z,5.25
2019-01-17T02:05:39.350Z,5.28
2019-01-17T02:10:44.355Z,5.27
2019-01-17T02:15:49.428Z,5.25
2019-01-17T02:20:54.444Z,5.17
2019-01-17T02:25:59.828Z,5.24
2019-01-17T02:31:05.206Z,5.26
2019-01-17T02:36:10.231Z,5.27
2019-01-17T02:41:15.314Z,5.25
2019-01-17T02:46:21.573Z,5.27
2019-01-17T02:51:27.142Z,5.30
2019-01-17T02:56:32.090Z,5.34
2019-01-17T03:01:37.167Z,5.48
2019-01-17T03:06:42.324Z,5.49
2019-01-17T03:11:47.342Z,5.50
2019-01-17T03:16:52.748Z,5.52
2019-01-17T03:21:57.987Z,5.48
2019-01-17T03:27:03.010Z,5.47
2019-01-17T03:32:08.607Z,5.51
2019-01-17T03:37:13.624Z,5.49
2019-01-17T03:42:18.954Z,5.54
2019-01-17T03:47:23.931Z,5.63
2019-01-17T03:52:29.012Z,5.80
2019-01-17T03:57:34.771Z,5.81
2019-01-17T04:02:40.228Z,5.88
2019-01-17T04:07:45.315Z,5.88
2019-01-17T04:12:50.461Z,5.90
2019-01-17T04:17:55.538Z,5.94
2019-01-17T04:23:00.596Z,6.05
2019-01-17T04:28:05.640Z,6.03
2019-01-17T04:33:10.700Z,6.10
2019-01-17T04:38:15.751Z,6.07
2019-01-17T04:43:20.915Z,6.05
2019-01-17T04:48:25.906Z,6.05
2019-01-17T04:53:31.065Z,6.05
2019-01-17T04:58:37.571Z,6.11
2019-01-17T05:03:46.251Z,6.12
2019-01-17T05:08:56.349Z,6.21
2019-01-17T05:14:01.381Z,6.12
2019-01-17T05:19:06.628Z,6.12
2019-01-17T05:24:11.636Z,6.20
2019-01-17T05:29:16.626Z,6.23
2019-01-17T05:34:22.186Z,6.25
2019-01-17T05:39:27.243Z,6.26
2019-01-17T05:44:32.744Z,6.21
2019-01-17T05:49:38.969Z,6.25
2019-01-17T05:54:44.125Z,6.28
2019-01-17T05:59:49.618Z,6.33
2019-01-17T06:04:54.994Z,6.30
2019-01-17T06:10:00.263Z,6.34
2019-01-17T06:15:06.337Z,6.40
2019-01-17T06:20:12.892Z,6.40
2019-01-17T06:25:18.182Z,6.51
2019-01-17T06:30:28.306Z,6.48
2019-01-17T06:35:33.438Z,6.42
2019-01-17T06:40:38.635Z,6.43
2019-01-17T06:45:43.997Z,6.38
2019-01-17T06:50:50.007Z,6.39
2019-01-17T06:55:55.117Z,6.40
2019-01-17T07:01:01.142Z,6.42
2019-01-17T07:06:06.235Z,6.51
2019-01-17T07:11:11.295Z,6.48
2019-01-17T07:16:16.416Z,6.48
2019-01-17T07:21:21.661Z,6.41
2019-01-17T07:26:26.731Z,6.37
2019-01-17T07:31:32.121Z,6.42
2019-01-17T07:36:37.159Z,6.48
2019-01-17T07:41:42.699Z,6.47
2019-01-17T07:46:47.779Z,6.47
2019-01-17T07:51:52.890Z,6.46
2019-01-17T07:56:58.298Z,6.51
2019-01-17T08:02:03.485Z,6.50
2019-01-17T08:07:08.825Z,6.60
2019-01-17T08:12:14.500Z,6.66
2019-01-17T08:17:19.700Z,6.70
2019-01-17T08:22:25.769Z,6.73
2019-01-17T08:27:31.293Z,6.71
2019-01-17T08:32:36.704Z,6.71
2019-01-17T08:37:41.823Z,6.69
2019-01-17T08:42:47.268Z,6.73
2019-01-17T08:47:54.261Z,6.68
2019-01-17T08:52:59.383Z,6.68
2019-01-17T08:58:04.473Z,6.76
2019-01-17T09:03:12.604Z,6.75
2019-01-17T09:08:17.841Z,6.76
2019-01-17T09:13:23.179Z,6.83
2019-01-17T09:18:28.686Z,6.80
2019-01-17T09:23:34.019Z,6.80
2019-01-17T09:28:39.209Z,6.81
2019-01-17T09:33:44.406Z,6.79
2019-01-17T09:38:49.491Z,6.79
2019-01-17T09:43:54.679Z,6.79
2019-01-17T09:48:59.789Z,6.87
2019-01-17T09:54:04.929Z,6.83
2019-01-17T09:59:11.393Z,6.89
2019-01-17T10:04:17.102Z,6.91
2019-01-17T10:09:22.676Z,6.93
2019-01-17T10:14:30.815Z,6.92
2019-01-17T10:20:08.697Z,6.95
2019-01-17T10:26:06.740Z,6.94
2019-01-17T10:31:51.008Z,6.88
2019-01-17T10:37:43.389Z,6.99
2019-01-17T10:43:07.811Z,7.07
2019-01-17T10:48:49.098Z,7.20
2019-01-17T10:54:37.034Z,7.19
2019-01-17T10:59:50.192Z,7.33
2019-01-17T11:05:38.627Z,7.30
2019-01-17T11:11:23.020Z,7.25
2019-01-17T11:17:04.886Z,7.24
2019-01-17T11:22:34.971Z,7.41
2019-01-17T11:28:17.791Z,7.43
2019-01-17T11:33:58.003Z,7.46
2019-01-17T11:39:45.646Z,7.52
2019-01-17T11:45:15.162Z,7.60
2019-01-17T11:51:16.699Z,7.68
2019-01-17T11:57:06.458Z,7.80
2019-01-17T12:02:54.016Z,8.11
2019-01-17T12:07:59.197Z,8.56
2019-01-17T12:13:04.605Z,8.87
2019-01-17T12:18:09.719Z,8.66
2019-01-17T12:23:15.189Z,8.28
2019-01-17T12:28:20.353Z,8.11
2019-01-17T12:33:25.462Z,7.96
2019-01-17T12:38:30.538Z,8.07
2019-01-17T12:43:35.599Z,8.20
2019-01-17T12:48:40.849Z,8.45
2019-01-17T12:53:46.348Z,9.09
2019-01-17T12:58:51.495Z,9.36
2019-01-17T13:03:57.885Z,9.07
2019-01-17T13:09:04.783Z,9.30
2019-01-17T13:14:11.301Z,9.23
2019-01-17T13:19:16.762Z,9.31
2019-01-17T13:24:22.026Z,8.86
2019-01-17T13:29:27.069Z,8.77
2019-01-17T13:34:32.163Z,8.54
2019-01-17T13:39:37.354Z,8.44
2019-01-17T13:44:42.333Z,8.28
2019-01-17T13:49:47.443Z,8.18
2019-01-17T13:54:52.557Z,8.11
2019-01-17T13:59:57.763Z,8.03
2019-01-17T14:05:03.867Z,8.02
2019-01-17T14:10:09.580Z,7.94
2019-01-17T14:15:33.057Z,7.96
2019-01-17T14:20:47.405Z,7.92
2019-01-17T14:25:52.614Z,7.97
2019-01-17T14:30:58.123Z,7.95
2019-01-17T14:36:03.192Z,7.85
2019-01-17T14:41:08.457Z,7.78
2019-01-17T14:46:13.565Z,7.78
2019-01-17T14:51:18.883Z,7.74
2019-01-17T14:56:24.863Z,7.62
2019-01-17T15:01:30.067Z,7.68
2019-01-17T15:06:35.258Z,7.63
2019-01-17T15:11:46.081Z,7.59
2019-01-17T15:16:52.468Z,7.59
2019-01-17T15:22:05.453Z,7.48
2019-01-17T15:27:10.499Z,7.34
2019-01-17T15:32:15.766Z,7.28
2019-01-17T15:37:20.903Z,7.26
2019-01-17T15:42:26.272Z,7.22
2019-01-17T15:47:31.828Z,7.21
2019-01-17T15:52:37.347Z,7.20
2019-01-17T15:57:42.460Z,7.17
2019-01-17T16:02:47.559Z,7.10
2019-01-17T16:07:52.630Z,7.12
2019-01-17T16:12:57.705Z,7.15
2019-01-17T16:18:04.394Z,7.07
2019-01-17T16:23:10.571Z,7.11
2019-01-17T16:28:16.333Z,7.07
2019-01-17T16:33:21.837Z,7.00
2019-01-17T16:38:28.545Z,6.95
2019-01-17T16:43:34.894Z,6.84
2019-01-17T16:48:40.890Z,6.84
2019-01-17T16:53:47.171Z,6.85
2019-01-17T16:58:52.356Z,6.81
2019-01-17T17:03:57.418Z,6.86
2019-01-17T17:09:09.798Z,6.85
2019-01-17T17:14:14.925Z,6.85
2019-01-17T17:19:20.335Z,6.83
2019-01-17T17:24:25.724Z,6.46
2019-01-17T17:29:30.773Z,5.96
2019-01-17T17:34:39.036Z,5.76
2019-01-17T17:39:44.453Z,5.52
2019-01-17T17:44:49.581Z,5.51
2019-01-17T17:49:59.401Z,5.51
2019-01-17T17:55:04.956Z,5.49
2019-01-17T18:00:27.329Z,5.62
2019-01-17T18:05:32.558Z,5.59
2019-01-17T18:10:37.679Z,5.60
2019-01-17T18:15:42.797Z,5.59
2019-01-17T18:20:47.948Z,5.51
2019-01-17T18:25:53.005Z,5.52
2019-01-17T18:30:58.190Z,5.41
2019-01-17T18:36:03.681Z,5.38
2019-01-17T18:41:11.447Z,5.23
2019-01-17T18:46:16.892Z,5.04
2019-01-17T18:51:22.826Z,4.94
2019-01-17T18:56:28.762Z,4.79
2019-01-17T19:01:33.859Z,4.72
2019-01-17T19:06:39.140Z,4.74
2019-01-17T19:11:45.150Z,4.63
2019-01-17T19:16:50.728Z,4.68
2019-01-17T19:21:56.040Z,4.62
2019-01-17T19:27:01.177Z,4.68
2019-01-17T19:32:06.623Z,4.68
2019-01-17T19:37:11.777Z,4.68
2019-01-17T19:42:17.020Z,4.72
2019-01-17T19:47:22.100Z,4.72
2019-01-17T19:52:27.310Z,4.66
2019-01-17T19:57:32.327Z,4.67
2019-01-17T20:02:37.554Z,4.56
2019-01-17T20:07:42.731Z,4.66
2019-01-17T20:12:48.446Z,4.67
2019-01-17T20:17:53.960Z,4.67
2019-01-17T20:22:59.162Z,4.64
2019-01-17T20:28:04.473Z,4.54
2019-01-17T20:33:09.998Z,4.47
2019-01-17T20:38:15.306Z,4.49
2019-01-17T20:43:20.472Z,4.46
2019-01-17T20:48:25.883Z,4.43
2019-01-17T20:53:31.218Z,4.35
2019-01-17T20:58:42.255Z,4.35
2019-01-17T21:03:44.548Z,4.24
2019-01-17T21:08:49.721Z,4.25
2019-01-17T21:13:54.768Z,4.21
2019-01-17T21:18:59.958Z,4.21
2019-01-17T21:24:05.178Z,4.11
2019-01-17T21:29:19.755Z,4.14
2019-01-17T21:34:25.883Z,4.11
2019-01-17T21:39:31.441Z,4.00
2019-01-17T21:44:36.634Z,3.89
2019-01-17T21:49:42.184Z,3.86
2019-01-17T21:54:47.210Z,3.79
2019-01-17T21:59:54.895Z,3.73
2019-01-17T22:05:00.800Z,3.71
2019-01-17T22:10:11.708Z,3.75
2019-01-17T22:15:19.114Z,3.71
2019-01-17T22:20:24.430Z,3.73
2019-01-17T22:25:34.468Z,3.62
2019-01-17T22:30:40.905Z,3.69
2019-01-17T22:35:46.034Z,3.59
2019-01-17T22:40:54.578Z,3.58
2019-01-17T22:45:59.699Z,3.56
2019-01-17T22:51:14.916Z,3.53
2019-01-17T22:56:20.474Z,3.52
2019-01-17T23:01:30.256Z,3.54
2019-01-17T23:06:35.291Z,3.54
2019-01-17T23:11:41.071Z,3.59
2019-01-17T23:16:46.352Z,3.50
2019-01-17T23:21:51.571Z,3.48
2019-01-17T23:26:56.728Z,3.56
2019-01-17T23:32:05.126Z,3.57
2019-01-17T23:37:10.624Z,3.58
2019-01-17T23:42:18.440Z,3.56
2019-01-17T23:47:23.664Z,3.55
2019-01-17T23:52:29.732Z,3.62
2019-01-17T23:57:36.873Z,3.62
